createdAt,value
2023-02-11T02:13:32.439Z,100.00
2023-02-11T02:17:18.432Z,100.00
2023-02-11T02:21:14.452Z,100.00
2023-02-11T02:25:02.469Z,100.00
2023-02-11T02:28:59.473Z,100.00
2023-02-11T02:48:41.656Z,100.00
2023-02-11T02:52:41.719Z,100.00
2023-02-11T02:56:28.688Z,100.00
2023-02-11T03:00:18.698Z,100.00
2023-02-11T03:04:23.658Z,100.00
2023-02-11T03:08:12.708Z,100.00
2023-02-11T03:12:01.710Z,100.00
2023-02-11T03:15:50.163Z,100.00
2023-02-11T03:19:40.704Z,100.00
2023-02-11T03:27:15.685Z,100.00
2023-02-11T03:34:40.740Z,100.00
2023-02-11T03:38:20.705Z,100.00
2023-02-11T03:42:24.388Z,100.00
2023-02-11T03:46:28.378Z,100.00
2023-02-11T03:50:03.775Z,100.00
2023-02-11T03:54:10.674Z,100.00
2023-02-11T03:58:27.298Z,100.00
2023-02-11T04:02:31.404Z,100.00
2023-02-11T04:06:35.631Z,100.00
2023-02-11T04:14:25.515Z,100.00
2023-02-11T04:18:16.763Z,100.00
2023-02-11T04:22:05.775Z,100.00
2023-02-11T04:26:08.594Z,100.00
2023-02-11T04:29:59.702Z,100.00
2023-02-11T04:33:51.814Z,100.00
2023-02-11T04:41:22.235Z,100.00
2023-02-11T04:44:55.419Z,100.00
2023-02-11T04:48:30.893Z,100.00
2023-02-11T04:52:07.809Z,100.00
2023-02-11T04:56:02.782Z,100.00
2023-02-11T04:59:56.703Z,100.00
2023-02-11T05:03:59.548Z,100.00
2023-02-11T05:07:47.467Z,100.00
2023-02-11T05:11:37.772Z,100.00
2023-02-11T05:15:26.009Z,100.00
2023-02-11T05:19:01.832Z,100.00
2023-02-11T05:22:51.807Z,100.00
2023-02-11T05:26:55.687Z,100.00
2023-02-11T05:30:57.455Z,100.00
2023-02-11T05:50:01.799Z,100.00
2023-02-11T05:54:04.697Z,94.81
2023-02-11T06:05:53.862Z,100.00
2023-02-11T06:09:57.462Z,100.00
2023-02-11T06:17:51.553Z,99.98
2023-02-11T06:21:44.206Z,96.05
2023-02-11T06:29:28.835Z,84.05
2023-02-11T06:33:16.904Z,73.10
2023-02-11T06:37:07.845Z,79.63
2023-02-11T06:40:56.825Z,84.39
2023-02-11T06:49:01.552Z,75.03
2023-02-11T06:53:08.013Z,70.10
2023-02-11T06:57:15.429Z,70.06
2023-02-11T07:18:35.791Z,66.56
2023-02-11T07:22:42.654Z,77.80
2023-02-11T07:27:21.219Z,79.12
2023-02-11T07:31:57.231Z,86.08
2023-02-11T07:36:48.888Z,99.66
2023-02-11T07:41:02.747Z,100.00
2023-02-11T07:45:37.156Z,100.00
2023-02-11T07:50:17.672Z,100.00
2023-02-11T07:55:05.115Z,100.00
2023-02-11T10:38:29.967Z,100.00
2023-02-11T10:52:13.922Z,100.00
2023-02-11T11:23:18.599Z,100.00
2023-02-11T11:41:22.214Z,100.00
2023-02-11T12:44:31.973Z,100.00
2023-02-11T12:53:53.876Z,100.00
2023-02-11T14:21:58.530Z,100.00
2023-02-11T15:19:24.353Z,100.00
2023-02-11T16:16:27.142Z,100.00
2023-02-11T16:25:29.952Z,100.00
2023-02-11T16:38:06.232Z,100.00
2023-02-11T17:09:40.463Z,100.00
2023-02-11T17:13:33.500Z,100.00
2023-02-11T17:17:36.723Z,100.00
2023-02-11T17:21:30.214Z,100.00
2023-02-11T17:25:27.102Z,100.00
2023-02-11T17:29:24.681Z,100.00
2023-02-11T17:33:26.501Z,100.00
2023-02-11T17:37:28.039Z,100.00
2023-02-11T17:41:17.909Z,100.00
2023-02-11T19:00:25.686Z,100.00
2023-02-11T19:22:38.851Z,100.00
2023-02-11T19:30:35.758Z,100.00
